Etusivu
METAR-TAF:

METAR-TAF

Lentoasemat :

Le Mans, Ranska

Leveyspiiri: 47-56N, Pituuspiiri: 000-12E, korkeus merenpinnasta: 59 m

Tämänhetkinen sää

Tämä raportti tehtiin 37 minuuttia sitten, kello 06.00 UTC
Tuuli 2 kn etelästä
Lämpötila 1°C
Kosteus 100%
Ilmanpaine 1031 hPa
Näkyvyys 10 km tai enemmän
ei pilviä alle 1500 m:ssä eikä cumulonimbus-pilviä

METAR: LFRM 210600Z AUTO 19002KT CAVOK 01/01 Q1031 NOSIG

Aika: 07:37 (06:37 UTC)

Sääennuste

Tämä raportti tehtiin 1 tunti ja 37 minuuttia sitten, kello 05.00 UTC
Ennuste voimassa 21. päivästä klo 06 UTC - 22. päivään klo 06 UTC
Tuuli 3 kn eri suunnista
Näkyvyys 10 km tai enemmän
ei pilviä alle 1500 m:ssä eikä cumulonimbus-pilviä
Tulossa
21. päivästä klo 12 UTC - 21. päivään klo 14 UTC
Tuuli 10 kn lounaasta

TAF: LFRM 210500Z 2106/2206 VRB03KT CAVOK BECMG 2112/2114 23010KT

Säähavainnot ja -ennusteet yli 4000 lentoasemalta (METAR- ja TAF-raportit).

Käytössä olevat sääasemat on merkitty karttaan keltaisilla ja punaisilla pisteillä.

Aseta hiiri pisteen päälle nähdäksesi sääaseman nimen.

Klikkaa sitten nähdäksesi säähavainnot ja -ennusteet.

Kartan vaihtaminen: klikkaa mustalla rastilla varustettuja vihreitä pisteitä, niin voit zoomata sisään; viivalla varustettua vihreää pistettä, niin voit zoomata ulos tai vihreitä nuolia, niin pääset viereisille kartoille.


METAR-TAF: